sensor_id;sensor_type;location;lat;lon;timestamp;temperature;humidity
44851;DHT22;30583;48.714;9.386;2024-02-23T00:01:36;8.60;72.40
44851;DHT22;30583;48.714;9.386;2024-02-23T00:04:02;8.40;72.70
44851;DHT22;30583;48.714;9.386;2024-02-23T00:06:28;8.90;72.10
44851;DHT22;30583;48.714;9.386;2024-02-23T00:08:54;9.20;71.50
44851;DHT22;30583;48.714;9.386;2024-02-23T00:11:20;9.20;71.20
44851;DHT22;30583;48.714;9.386;2024-02-23T00:13:46;9.00;70.80
44851;DHT22;30583;48.714;9.386;2024-02-23T00:16:12;9.00;70.80
44851;DHT22;30583;48.714;9.386;2024-02-23T00:18:38;9.20;70.40
44851;DHT22;30583;48.714;9.386;2024-02-23T00:21:04;9.30;70.80
44851;DHT22;30583;48.714;9.386;2024-02-23T00:23:29;9.10;71.10
44851;DHT22;30583;48.714;9.386;2024-02-23T00:25:55;9.10;70.10
44851;DHT22;30583;48.714;9.386;2024-02-23T00:28:21;9.20;70.30
44851;DHT22;30583;48.714;9.386;2024-02-23T00:30:47;9.10;70.30
44851;DHT22;30583;48.714;9.386;2024-02-23T00:33:12;8.70;71.60
44851;DHT22;30583;48.714;9.386;2024-02-23T00:35:38;8.90;71.00
44851;DHT22;30583;48.714;9.386;2024-02-23T00:38:04;9.10;71.70
44851;DHT22;30583;48.714;9.386;2024-02-23T00:40:29;8.80;71.10
44851;DHT22;30583;48.714;9.386;2024-02-23T00:42:55;8.70;71.50
44851;DHT22;30583;48.714;9.386;2024-02-23T00:45:21;8.70;71.70
44851;DHT22;30583;48.714;9.386;2024-02-23T00:47:47;8.80;71.70
44851;DHT22;30583;48.714;9.386;2024-02-23T00:50:13;9.30;70.40
44851;DHT22;30583;48.714;9.386;2024-02-23T00:52:39;9.00;70.00
44851;DHT22;30583;48.714;9.386;2024-02-23T00:55:06;8.90;70.80
44851;DHT22;30583;48.714;9.386;2024-02-23T00:57:33;8.70;71.00
44851;DHT22;30583;48.714;9.386;2024-02-23T00:59:59;8.70;70.30
44851;DHT22;30583;48.714;9.386;2024-02-23T01:02:25;8.60;71.30
44851;DHT22;30583;48.714;9.386;2024-02-23T01:04:50;8.70;71.10
44851;DHT22;30583;48.714;9.386;2024-02-23T01:07:16;8.70;70.30
44851;DHT22;30583;48.714;9.386;2024-02-23T01:09:41;8.60;70.00
44851;DHT22;30583;48.714;9.386;2024-02-23T01:12:07;8.50;71.50
44851;DHT22;30583;48.714;9.386;2024-02-23T01:14:33;8.50;70.80
44851;DHT22;30583;48.714;9.386;2024-02-23T01:16:58;8.90;71.00
44851;DHT22;30583;48.714;9.386;2024-02-23T01:19:24;8.90;70.50
44851;DHT22;30583;48.714;9.386;2024-02-23T01:21:50;9.10;70.80
44851;DHT22;30583;48.714;9.386;2024-02-23T01:24:24;9.20;70.40
44851;DHT22;30583;48.714;9.386;2024-02-23T01:26:51;8.70;71.50
44851;DHT22;30583;48.714;9.386;2024-02-23T01:29:17;8.70;72.20
44851;DHT22;30583;48.714;9.386;2024-02-23T01:31:42;8.70;72.40
44851;DHT22;30583;48.714;9.386;2024-02-23T01:34:08;8.50;73.20
44851;DHT22;30583;48.714;9.386;2024-02-23T01:36:33;8.40;73.80
44851;DHT22;30583;48.714;9.386;2024-02-23T01:38:59;8.20;73.50
44851;DHT22;30583;48.714;9.386;2024-02-23T01:41:24;8.20;73.80
44851;DHT22;30583;48.714;9.386;2024-02-23T01:43:50;8.00;73.80
44851;DHT22;30583;48.714;9.386;2024-02-23T01:46:17;7.70;73.90
44851;DHT22;30583;48.714;9.386;2024-02-23T01:48:45;7.70;73.60
44851;DHT22;30583;48.714;9.386;2024-02-23T01:51:11;7.60;74.60
44851;DHT22;30583;48.714;9.386;2024-02-23T01:53:40;7.70;74.20
44851;DHT22;30583;48.714;9.386;2024-02-23T01:56:06;7.70;74.10
44851;DHT22;30583;48.714;9.386;2024-02-23T01:58:33;7.80;73.70
44851;DHT22;30583;48.714;9.386;2024-02-23T02:01:00;8.00;73.70
44851;DHT22;30583;48.714;9.386;2024-02-23T02:03:26;7.70;73.10
44851;DHT22;30583;48.714;9.386;2024-02-23T02:05:53;7.70;73.50
44851;DHT22;30583;48.714;9.386;2024-02-23T02:08:21;7.60;73.00
44851;DHT22;30583;48.714;9.386;2024-02-23T02:10:47;7.60;73.40
44851;DHT22;30583;48.714;9.386;2024-02-23T02:13:13;7.50;73.30
44851;DHT22;30583;48.714;9.386;2024-02-23T02:15:38;7.10;74.30
44851;DHT22;30583;48.714;9.386;2024-02-23T02:18:04;7.30;74.40
44851;DHT22;30583;48.714;9.386;2024-02-23T02:20:32;7.20;74.20
44851;DHT22;30583;48.714;9.386;2024-02-23T02:22:59;7.20;74.50
44851;DHT22;30583;48.714;9.386;2024-02-23T02:25:24;7.40;73.20
44851;DHT22;30583;48.714;9.386;2024-02-23T02:27:50;7.40;74.20
44851;DHT22;30583;48.714;9.386;2024-02-23T02:30:16;7.40;73.10
44851;DHT22;30583;48.714;9.386;2024-02-23T02:32:45;7.10;73.60
44851;DHT22;30583;48.714;9.386;2024-02-23T02:35:11;7.50;73.80
44851;DHT22;30583;48.714;9.386;2024-02-23T02:37:37;7.70;73.50
44851;DHT22;30583;48.714;9.386;2024-02-23T02:40:03;7.80;72.10
44851;DHT22;30583;48.714;9.386;2024-02-23T02:42:29;7.90;71.80
44851;DHT22;30583;48.714;9.386;2024-02-23T02:44:54;7.80;71.80
44851;DHT22;30583;48.714;9.386;2024-02-23T02:47:20;7.80;72.10
44851;DHT22;30583;48.714;9.386;2024-02-23T02:49:45;7.40;72.50
44851;DHT22;30583;48.714;9.386;2024-02-23T02:52:11;7.50;73.40
44851;DHT22;30583;48.714;9.386;2024-02-23T02:54:36;7.60;72.60
44851;DHT22;30583;48.714;9.386;2024-02-23T02:57:02;7.40;72.70
44851;DHT22;30583;48.714;9.386;2024-02-23T02:59:28;7.10;73.90
44851;DHT22;30583;48.714;9.386;2024-02-23T03:01:53;7.30;73.20
44851;DHT22;30583;48.714;9.386;2024-02-23T03:04:19;7.20;73.20
44851;DHT22;30583;48.714;9.386;2024-02-23T03:06:44;7.10;73.50
44851;DHT22;30583;48.714;9.386;2024-02-23T03:09:10;7.20;73.10
44851;DHT22;30583;48.714;9.386;2024-02-23T03:11:36;7.60;72.60
44851;DHT22;30583;48.714;9.386;2024-02-23T03:14:02;7.50;72.10
44851;DHT22;30583;48.714;9.386;2024-02-23T03:16:28;7.20;73.60
44851;DHT22;30583;48.714;9.386;2024-02-23T03:18:56;7.10;73.30
44851;DHT22;30583;48.714;9.386;2024-02-23T03:21:22;7.30;73.10
44851;DHT22;30583;48.714;9.386;2024-02-23T03:23:47;7.20;73.00
44851;DHT22;30583;48.714;9.386;2024-02-23T03:26:13;7.60;72.30
44851;DHT22;30583;48.714;9.386;2024-02-23T03:28:39;7.50;72.10
44851;DHT22;30583;48.714;9.386;2024-02-23T03:31:04;7.60;71.60
44851;DHT22;30583;48.714;9.386;2024-02-23T03:33:30;7.40;71.80
44851;DHT22;30583;48.714;9.386;2024-02-23T03:35:57;7.40;72.40
44851;DHT22;30583;48.714;9.386;2024-02-23T03:38:23;8.00;71.40
44851;DHT22;30583;48.714;9.386;2024-02-23T03:40:49;8.20;70.50
44851;DHT22;30583;48.714;9.386;2024-02-23T03:43:14;7.70;70.60
44851;DHT22;30583;48.714;9.386;2024-02-23T03:45:40;7.30;72.40
44851;DHT22;30583;48.714;9.386;2024-02-23T03:48:06;7.20;73.30
44851;DHT22;30583;48.714;9.386;2024-02-23T03:50:32;7.30;73.20
44851;DHT22;30583;48.714;9.386;2024-02-23T03:52:57;7.50;72.70
44851;DHT22;30583;48.714;9.386;2024-02-23T03:55:23;7.40;73.10
44851;DHT22;30583;48.714;9.386;2024-02-23T03:57:48;7.50;72.80
44851;DHT22;30583;48.714;9.386;2024-02-23T04:00:14;7.30;72.80
44851;DHT22;30583;48.714;9.386;2024-02-23T04:02:40;7.20;73.20
44851;DHT22;30583;48.714;9.386;2024-02-23T04:05:07;7.40;73.40
44851;DHT22;30583;48.714;9.386;2024-02-23T04:07:32;7.60;72.30
44851;DHT22;30583;48.714;9.386;2024-02-23T04:09:58;7.40;73.00
44851;DHT22;30583;48.714;9.386;2024-02-23T04:12:24;7.20;73.40
44851;DHT22;30583;48.714;9.386;2024-02-23T04:14:50;7.10;73.70
44851;DHT22;30583;48.714;9.386;2024-02-23T04:17:16;7.30;73.50
44851;DHT22;30583;48.714;9.386;2024-02-23T04:19:42;7.30;73.10
44851;DHT22;30583;48.714;9.386;2024-02-23T04:22:08;7.70;72.90
44851;DHT22;30583;48.714;9.386;2024-02-23T04:24:37;7.60;72.10
44851;DHT22;30583;48.714;9.386;2024-02-23T04:27:04;7.30;73.00
44851;DHT22;30583;48.714;9.386;2024-02-23T04:29:30;7.50;72.70
44851;DHT22;30583;48.714;9.386;2024-02-23T04:32:02;7.60;72.20
44851;DHT22;30583;48.714;9.386;2024-02-23T04:34:28;7.70;72.00
44851;DHT22;30583;48.714;9.386;2024-02-23T04:36:54;7.90;71.00
44851;DHT22;30583;48.714;9.386;2024-02-23T04:39:20;8.10;70.60
44851;DHT22;30583;48.714;9.386;2024-02-23T04:41:46;7.80;71.00
44851;DHT22;30583;48.714;9.386;2024-02-23T04:44:12;7.40;71.60
44851;DHT22;30583;48.714;9.386;2024-02-23T04:46:37;7.20;73.00
44851;DHT22;30583;48.714;9.386;2024-02-23T04:49:03;7.30;73.50
44851;DHT22;30583;48.714;9.386;2024-02-23T04:51:28;7.70;72.70
44851;DHT22;30583;48.714;9.386;2024-02-23T04:53:54;8.20;71.00
44851;DHT22;30583;48.714;9.386;2024-02-23T04:56:20;8.30;70.50
44851;DHT22;30583;48.714;9.386;2024-02-23T04:58:46;8.40;70.40
44851;DHT22;30583;48.714;9.386;2024-02-23T05:01:12;8.00;71.70
44851;DHT22;30583;48.714;9.386;2024-02-23T05:03:38;8.00;71.90
44851;DHT22;30583;48.714;9.386;2024-02-23T05:06:04;8.10;71.90
44851;DHT22;30583;48.714;9.386;2024-02-23T05:08:30;8.20;71.50
44851;DHT22;30583;48.714;9.386;2024-02-23T05:10:56;8.10;71.80
44851;DHT22;30583;48.714;9.386;2024-02-23T05:13:23;8.00;71.90
44851;DHT22;30583;48.714;9.386;2024-02-23T05:15:48;7.90;72.00
44851;DHT22;30583;48.714;9.386;2024-02-23T05:18:14;8.10;72.40
44851;DHT22;30583;48.714;9.386;2024-02-23T05:20:39;7.90;72.70
44851;DHT22;30583;48.714;9.386;2024-02-23T05:23:05;7.90;72.40
44851;DHT22;30583;48.714;9.386;2024-02-23T05:25:30;7.50;72.20
44851;DHT22;30583;48.714;9.386;2024-02-23T05:27:56;7.10;73.80
44851;DHT22;30583;48.714;9.386;2024-02-23T05:30:22;7.00;74.00
44851;DHT22;30583;48.714;9.386;2024-02-23T05:32:48;7.40;73.70
44851;DHT22;30583;48.714;9.386;2024-02-23T05:35:13;7.70;72.30
44851;DHT22;30583;48.714;9.386;2024-02-23T05:37:40;7.70;72.80
44851;DHT22;30583;48.714;9.386;2024-02-23T05:40:06;8.10;70.90
44851;DHT22;30583;48.714;9.386;2024-02-23T05:42:36;8.10;70.50
44851;DHT22;30583;48.714;9.386;2024-02-23T05:45:02;8.30;70.40
44851;DHT22;30583;48.714;9.386;2024-02-23T05:47:30;8.30;70.20
44851;DHT22;30583;48.714;9.386;2024-02-23T05:49:55;8.20;70.70
44851;DHT22;30583;48.714;9.386;2024-02-23T05:52:21;8.40;70.50
44851;DHT22;30583;48.714;9.386;2024-02-23T05:54:47;8.40;70.60
44851;DHT22;30583;48.714;9.386;2024-02-23T05:57:12;8.40;70.40
44851;DHT22;30583;48.714;9.386;2024-02-23T05:59:38;8.30;70.10
44851;DHT22;30583;48.714;9.386;2024-02-23T06:02:03;8.40;70.10
44851;DHT22;30583;48.714;9.386;2024-02-23T06:04:29;8.20;70.60
44851;DHT22;30583;48.714;9.386;2024-02-23T06:06:55;8.10;71.10
44851;DHT22;30583;48.714;9.386;2024-02-23T06:09:21;8.30;70.70
44851;DHT22;30583;48.714;9.386;2024-02-23T06:11:46;8.30;70.70
44851;DHT22;30583;48.714;9.386;2024-02-23T06:14:12;8.00;71.60
44851;DHT22;30583;48.714;9.386;2024-02-23T06:16:38;8.00;71.70
44851;DHT22;30583;48.714;9.386;2024-02-23T06:19:03;8.10;71.70
44851;DHT22;30583;48.714;9.386;2024-02-23T06:21:29;7.90;71.70
44851;DHT22;30583;48.714;9.386;2024-02-23T06:23:54;8.00;71.40
44851;DHT22;30583;48.714;9.386;2024-02-23T06:26:21;7.90;70.80
44851;DHT22;30583;48.714;9.386;2024-02-23T06:28:46;7.90;70.90
44851;DHT22;30583;48.714;9.386;2024-02-23T06:31:14;8.00;70.80
44851;DHT22;30583;48.714;9.386;2024-02-23T06:33:40;8.20;70.40
44851;DHT22;30583;48.714;9.386;2024-02-23T06:36:09;8.10;70.20
44851;DHT22;30583;48.714;9.386;2024-02-23T06:38:35;8.10;70.30
44851;DHT22;30583;48.714;9.386;2024-02-23T06:41:00;8.10;70.80
44851;DHT22;30583;48.714;9.386;2024-02-23T06:43:26;8.20;71.40
44851;DHT22;30583;48.714;9.386;2024-02-23T06:45:52;8.20;71.50
44851;DHT22;30583;48.714;9.386;2024-02-23T06:48:18;7.90;72.50
44851;DHT22;30583;48.714;9.386;2024-02-23T06:50:43;7.90;72.20
44851;DHT22;30583;48.714;9.386;2024-02-23T06:53:09;7.90;72.30
44851;DHT22;30583;48.714;9.386;2024-02-23T06:55:34;8.00;72.10
44851;DHT22;30583;48.714;9.386;2024-02-23T06:58:01;7.90;72.00
44851;DHT22;30583;48.714;9.386;2024-02-23T07:00:26;7.90;72.00
44851;DHT22;30583;48.714;9.386;2024-02-23T07:02:52;7.70;72.80
44851;DHT22;30583;48.714;9.386;2024-02-23T07:05:17;7.80;74.70
44851;DHT22;30583;48.714;9.386;2024-02-23T07:07:43;9.70;68.10
44851;DHT22;30583;48.714;9.386;2024-02-23T07:10:09;8.70;70.00
44851;DHT22;30583;48.714;9.386;2024-02-23T07:12:36;8.40;70.40
44851;DHT22;30583;48.714;9.386;2024-02-23T07:15:01;8.20;71.30
44851;DHT22;30583;48.714;9.386;2024-02-23T07:17:27;8.10;72.00
44851;DHT22;30583;48.714;9.386;2024-02-23T07:19:53;7.70;72.30
44851;DHT22;30583;48.714;9.386;2024-02-23T07:22:19;7.90;72.30
44851;DHT22;30583;48.714;9.386;2024-02-23T07:24:45;8.10;71.90
44851;DHT22;30583;48.714;9.386;2024-02-23T07:27:11;8.10;71.50
44851;DHT22;30583;48.714;9.386;2024-02-23T07:29:37;8.00;72.30
44851;DHT22;30583;48.714;9.386;2024-02-23T07:32:02;8.10;71.50
44851;DHT22;30583;48.714;9.386;2024-02-23T07:34:29;8.30;70.80
44851;DHT22;30583;48.714;9.386;2024-02-23T07:36:54;8.20;69.40
44851;DHT22;30583;48.714;9.386;2024-02-23T07:39:20;8.20;69.30
44851;DHT22;30583;48.714;9.386;2024-02-23T07:41:47;7.80;69.90
44851;DHT22;30583;48.714;9.386;2024-02-23T07:44:13;8.00;70.70
44851;DHT22;30583;48.714;9.386;2024-02-23T07:46:38;8.30;69.60
44851;DHT22;30583;48.714;9.386;2024-02-23T07:49:04;8.60;68.70
44851;DHT22;30583;48.714;9.386;2024-02-23T07:51:31;8.80;68.20
44851;DHT22;30583;48.714;9.386;2024-02-23T07:53:57;8.80;67.80
44851;DHT22;30583;48.714;9.386;2024-02-23T07:56:22;14.50;71.60
44851;DHT22;30583;48.714;9.386;2024-02-23T07:58:48;15.70;59.70
44851;DHT22;30583;48.714;9.386;2024-02-23T08:01:14;16.50;52.10
44851;DHT22;30583;48.714;9.386;2024-02-23T08:03:40;12.40;55.20
44851;DHT22;30583;48.714;9.386;2024-02-23T08:06:06;10.50;60.20
44851;DHT22;30583;48.714;9.386;2024-02-23T08:08:31;9.90;62.30
44851;DHT22;30583;48.714;9.386;2024-02-23T08:11:01;9.40;63.70
44851;DHT22;30583;48.714;9.386;2024-02-23T08:13:27;9.50;63.60
44851;DHT22;30583;48.714;9.386;2024-02-23T08:15:52;9.20;63.80
44851;DHT22;30583;48.714;9.386;2024-02-23T08:18:18;9.30;63.40
44851;DHT22;30583;48.714;9.386;2024-02-23T08:20:43;8.90;64.00
44851;DHT22;30583;48.714;9.386;2024-02-23T08:23:09;8.70;65.20
44851;DHT22;30583;48.714;9.386;2024-02-23T08:25:35;8.60;65.10
44851;DHT22;30583;48.714;9.386;2024-02-23T08:28:01;8.50;65.20
44851;DHT22;30583;48.714;9.386;2024-02-23T08:30:27;8.20;65.50
44851;DHT22;30583;48.714;9.386;2024-02-23T08:32:52;8.50;65.30
44851;DHT22;30583;48.714;9.386;2024-02-23T08:35:18;8.70;65.00
44851;DHT22;30583;48.714;9.386;2024-02-23T08:37:44;8.50;64.80
44851;DHT22;30583;48.714;9.386;2024-02-23T08:40:10;8.40;64.80
44851;DHT22;30583;48.714;9.386;2024-02-23T08:42:36;8.20;64.70
44851;DHT22;30583;48.714;9.386;2024-02-23T08:45:01;8.50;64.70
44851;DHT22;30583;48.714;9.386;2024-02-23T08:47:27;8.30;63.20
44851;DHT22;30583;48.714;9.386;2024-02-23T08:49:57;8.40;64.20
44851;DHT22;30583;48.714;9.386;2024-02-23T08:52:23;8.40;63.50
44851;DHT22;30583;48.714;9.386;2024-02-23T08:54:48;8.30;62.70
44851;DHT22;30583;48.714;9.386;2024-02-23T08:57:14;8.10;62.80
44851;DHT22;30583;48.714;9.386;2024-02-23T08:59:44;8.30;62.50
44851;DHT22;30583;48.714;9.386;2024-02-23T09:02:10;8.30;61.50
44851;DHT22;30583;48.714;9.386;2024-02-23T09:04:36;8.00;61.50
44851;DHT22;30583;48.714;9.386;2024-02-23T09:07:01;8.00;62.30
44851;DHT22;30583;48.714;9.386;2024-02-23T09:09:27;8.30;62.40
44851;DHT22;30583;48.714;9.386;2024-02-23T09:11:53;8.10;62.30
44851;DHT22;30583;48.714;9.386;2024-02-23T09:14:18;8.20;62.30
44851;DHT22;30583;48.714;9.386;2024-02-23T09:16:44;8.00;61.00
44851;DHT22;30583;48.714;9.386;2024-02-23T09:19:11;8.20;60.90
44851;DHT22;30583;48.714;9.386;2024-02-23T09:21:37;8.70;61.00
44851;DHT22;30583;48.714;9.386;2024-02-23T09:24:04;8.50;60.50
44851;DHT22;30583;48.714;9.386;2024-02-23T09:26:29;8.70;60.20
44851;DHT22;30583;48.714;9.386;2024-02-23T09:28:55;8.80;60.30
44851;DHT22;30583;48.714;9.386;2024-02-23T09:31:21;8.90;59.40
44851;DHT22;30583;48.714;9.386;2024-02-23T09:33:46;8.70;60.10
44851;DHT22;30583;48.714;9.386;2024-02-23T09:36:14;8.80;60.90
44851;DHT22;30583;48.714;9.386;2024-02-23T09:38:39;9.10;58.90
44851;DHT22;30583;48.714;9.386;2024-02-23T09:41:11;9.10;59.20
44851;DHT22;30583;48.714;9.386;2024-02-23T09:43:42;8.80;58.30
44851;DHT22;30583;48.714;9.386;2024-02-23T09:46:10;8.80;59.90
44851;DHT22;30583;48.714;9.386;2024-02-23T09:48:36;9.20;58.10
44851;DHT22;30583;48.714;9.386;2024-02-23T09:51:05;9.00;58.80
44851;DHT22;30583;48.714;9.386;2024-02-23T09:53:31;8.70;58.60
44851;DHT22;30583;48.714;9.386;2024-02-23T09:55:59;9.10;57.50
44851;DHT22;30583;48.714;9.386;2024-02-23T09:58:26;8.50;58.70
44851;DHT22;30583;48.714;9.386;2024-02-23T10:00:52;8.60;58.70
44851;DHT22;30583;48.714;9.386;2024-02-23T10:03:18;8.40;58.80
44851;DHT22;30583;48.714;9.386;2024-02-23T10:05:43;8.50;58.20
44851;DHT22;30583;48.714;9.386;2024-02-23T10:08:11;8.70;58.60
44851;DHT22;30583;48.714;9.386;2024-02-23T10:10:37;8.50;59.80
44851;DHT22;30583;48.714;9.386;2024-02-23T10:13:03;8.70;57.60
44851;DHT22;30583;48.714;9.386;2024-02-23T10:15:31;8.70;57.80
44851;DHT22;30583;48.714;9.386;2024-02-23T10:17:57;8.70;58.10
44851;DHT22;30583;48.714;9.386;2024-02-23T10:20:22;8.20;59.70
44851;DHT22;30583;48.714;9.386;2024-02-23T10:22:48;8.40;59.80
44851;DHT22;30583;48.714;9.386;2024-02-23T10:25:14;8.70;59.80
44851;DHT22;30583;48.714;9.386;2024-02-23T10:27:41;8.10;59.90
44851;DHT22;30583;48.714;9.386;2024-02-23T10:30:08;8.50;59.80
44851;DHT22;30583;48.714;9.386;2024-02-23T10:32:38;8.50;60.70
44851;DHT22;30583;48.714;9.386;2024-02-23T10:35:10;8.70;59.10
44851;DHT22;30583;48.714;9.386;2024-02-23T10:37:36;8.50;58.10
44851;DHT22;30583;48.714;9.386;2024-02-23T10:40:01;9.10;56.60
44851;DHT22;30583;48.714;9.386;2024-02-23T10:42:33;9.10;56.20
44851;DHT22;30583;48.714;9.386;2024-02-23T10:44:59;8.70;57.50
44851;DHT22;30583;48.714;9.386;2024-02-23T10:47:26;8.70;57.10
44851;DHT22;30583;48.714;9.386;2024-02-23T10:49:54;8.70;56.50
44851;DHT22;30583;48.714;9.386;2024-02-23T10:52:22;9.30;56.00
44851;DHT22;30583;48.714;9.386;2024-02-23T10:54:49;9.10;55.80
44851;DHT22;30583;48.714;9.386;2024-02-23T10:57:17;8.70;55.80
44851;DHT22;30583;48.714;9.386;2024-02-23T10:59:46;8.90;55.10
44851;DHT22;30583;48.714;9.386;2024-02-23T11:02:14;8.60;55.80
44851;DHT22;30583;48.714;9.386;2024-02-23T11:04:46;8.70;55.70
44851;DHT22;30583;48.714;9.386;2024-02-23T11:07:17;8.70;54.40
44851;DHT22;30583;48.714;9.386;2024-02-23T11:09:49;8.90;54.50
44851;DHT22;30583;48.714;9.386;2024-02-23T11:12:25;9.00;53.50
44851;DHT22;30583;48.714;9.386;2024-02-23T11:14:51;8.60;55.80
44851;DHT22;30583;48.714;9.386;2024-02-23T11:17:21;8.60;54.30
44851;DHT22;30583;48.714;9.386;2024-02-23T11:19:49;8.70;55.50
44851;DHT22;30583;48.714;9.386;2024-02-23T11:22:27;8.70;55.50
44851;DHT22;30583;48.714;9.386;2024-02-23T11:24:53;8.80;55.50
44851;DHT22;30583;48.714;9.386;2024-02-23T11:27:19;8.70;55.90
44851;DHT22;30583;48.714;9.386;2024-02-23T11:29:46;8.90;55.10
44851;DHT22;30583;48.714;9.386;2024-02-23T11:32:13;8.50;57.30
44851;DHT22;30583;48.714;9.386;2024-02-23T11:34:39;8.40;57.00
44851;DHT22;30583;48.714;9.386;2024-02-23T11:37:10;8.70;57.00
44851;DHT22;30583;48.714;9.386;2024-02-23T11:39:38;8.80;56.40
44851;DHT22;30583;48.714;9.386;2024-02-23T11:42:06;8.90;56.30
44851;DHT22;30583;48.714;9.386;2024-02-23T11:44:32;8.90;55.60
44851;DHT22;30583;48.714;9.386;2024-02-23T11:46:58;8.70;55.60
44851;DHT22;30583;48.714;9.386;2024-02-23T11:49:28;8.70;56.00
44851;DHT22;30583;48.714;9.386;2024-02-23T11:51:54;8.70;56.00
44851;DHT22;30583;48.714;9.386;2024-02-23T11:54:20;8.90;56.20
44851;DHT22;30583;48.714;9.386;2024-02-23T11:56:47;8.90;54.30
44851;DHT22;30583;48.714;9.386;2024-02-23T11:59:23;8.90;54.60
44851;DHT22;30583;48.714;9.386;2024-02-23T12:01:50;8.50;55.30
44851;DHT22;30583;48.714;9.386;2024-02-23T12:04:15;8.90;55.80
44851;DHT22;30583;48.714;9.386;2024-02-23T12:06:42;9.00;54.90
44851;DHT22;30583;48.714;9.386;2024-02-23T12:09:08;9.00;54.20
44851;DHT22;30583;48.714;9.386;2024-02-23T12:11:34;8.90;54.80
44851;DHT22;30583;48.714;9.386;2024-02-23T12:14:00;9.20;54.30
44851;DHT22;30583;48.714;9.386;2024-02-23T12:16:33;9.20;53.80
44851;DHT22;30583;48.714;9.386;2024-02-23T12:19:01;8.80;55.10
44851;DHT22;30583;48.714;9.386;2024-02-23T12:21:26;9.00;55.60
44851;DHT22;30583;48.714;9.386;2024-02-23T12:23:52;9.30;54.80
44851;DHT22;30583;48.714;9.386;2024-02-23T12:26:18;9.40;54.50
44851;DHT22;30583;48.714;9.386;2024-02-23T12:28:44;9.40;54.50
44851;DHT22;30583;48.714;9.386;2024-02-23T12:31:11;9.70;54.10
44851;DHT22;30583;48.714;9.386;2024-02-23T12:33:38;9.50;54.10
44851;DHT22;30583;48.714;9.386;2024-02-23T12:36:08;9.40;54.90
44851;DHT22;30583;48.714;9.386;2024-02-23T12:38:34;9.30;56.00
44851;DHT22;30583;48.714;9.386;2024-02-23T12:41:02;9.50;56.50
44851;DHT22;30583;48.714;9.386;2024-02-23T12:43:28;9.40;56.00
44851;DHT22;30583;48.714;9.386;2024-02-23T12:45:55;9.20;56.30
44851;DHT22;30583;48.714;9.386;2024-02-23T12:48:21;9.20;56.40
44851;DHT22;30583;48.714;9.386;2024-02-23T12:50:48;9.50;56.40
44851;DHT22;30583;48.714;9.386;2024-02-23T12:53:34;9.40;54.80
44851;DHT22;30583;48.714;9.386;2024-02-23T12:56:10;9.40;55.60
44851;DHT22;30583;48.714;9.386;2024-02-23T12:58:37;9.30;56.00
44851;DHT22;30583;48.714;9.386;2024-02-23T13:01:04;9.50;55.60
44851;DHT22;30583;48.714;9.386;2024-02-23T13:03:30;9.40;55.40
44851;DHT22;30583;48.714;9.386;2024-02-23T13:05:56;10.20;66.10
44851;DHT22;30583;48.714;9.386;2024-02-23T13:08:22;9.90;53.90
44851;DHT22;30583;48.714;9.386;2024-02-23T13:10:49;10.10;54.00
44851;DHT22;30583;48.714;9.386;2024-02-23T13:13:14;9.70;55.30
44851;DHT22;30583;48.714;9.386;2024-02-23T13:15:41;9.70;55.40
44851;DHT22;30583;48.714;9.386;2024-02-23T13:18:07;10.00;55.60
44851;DHT22;30583;48.714;9.386;2024-02-23T13:20:33;9.50;55.50
44851;DHT22;30583;48.714;9.386;2024-02-23T13:22:58;9.80;55.30
44851;DHT22;30583;48.714;9.386;2024-02-23T13:25:24;9.70;55.50
44851;DHT22;30583;48.714;9.386;2024-02-23T13:27:49;9.70;56.00
44851;DHT22;30583;48.714;9.386;2024-02-23T13:30:15;9.70;54.60
44851;DHT22;30583;48.714;9.386;2024-02-23T13:32:41;9.60;55.00
44851;DHT22;30583;48.714;9.386;2024-02-23T13:35:07;9.60;56.00
44851;DHT22;30583;48.714;9.386;2024-02-23T13:37:34;9.70;54.80
44851;DHT22;30583;48.714;9.386;2024-02-23T13:40:00;9.70;54.90
44851;DHT22;30583;48.714;9.386;2024-02-23T13:42:25;10.20;53.30
44851;DHT22;30583;48.714;9.386;2024-02-23T13:44:51;9.50;54.30
44851;DHT22;30583;48.714;9.386;2024-02-23T13:47:17;9.80;53.70
44851;DHT22;30583;48.714;9.386;2024-02-23T13:49:42;9.80;54.70
44851;DHT22;30583;48.714;9.386;2024-02-23T13:52:08;9.80;54.50
44851;DHT22;30583;48.714;9.386;2024-02-23T13:54:34;9.70;54.20
44851;DHT22;30583;48.714;9.386;2024-02-23T13:56:59;9.60;54.50
44851;DHT22;30583;48.714;9.386;2024-02-23T13:59:25;9.50;55.10
44851;DHT22;30583;48.714;9.386;2024-02-23T14:01:50;9.30;55.20
44851;DHT22;30583;48.714;9.386;2024-02-23T14:04:16;9.50;55.20
44851;DHT22;30583;48.714;9.386;2024-02-23T14:06:42;9.80;54.60
44851;DHT22;30583;48.714;9.386;2024-02-23T14:09:09;10.00;54.00
44851;DHT22;30583;48.714;9.386;2024-02-23T14:11:35;9.70;54.80
44851;DHT22;30583;48.714;9.386;2024-02-23T14:14:01;9.70;55.60
44851;DHT22;30583;48.714;9.386;2024-02-23T14:16:28;9.70;55.30
44851;DHT22;30583;48.714;9.386;2024-02-23T14:18:54;9.60;55.40
44851;DHT22;30583;48.714;9.386;2024-02-23T14:21:20;9.60;55.60
44851;DHT22;30583;48.714;9.386;2024-02-23T14:23:48;9.80;55.10
44851;DHT22;30583;48.714;9.386;2024-02-23T14:26:13;10.00;54.70
44851;DHT22;30583;48.714;9.386;2024-02-23T14:28:39;10.10;54.60
44851;DHT22;30583;48.714;9.386;2024-02-23T14:31:04;9.90;54.50
44851;DHT22;30583;48.714;9.386;2024-02-23T14:33:32;9.90;54.40
44851;DHT22;30583;48.714;9.386;2024-02-23T14:35:57;9.70;54.30
44851;DHT22;30583;48.714;9.386;2024-02-23T14:38:23;10.00;54.30
44851;DHT22;30583;48.714;9.386;2024-02-23T14:40:49;10.00;54.80
44851;DHT22;30583;48.714;9.386;2024-02-23T14:43:14;10.30;54.40
44851;DHT22;30583;48.714;9.386;2024-02-23T14:45:40;10.20;54.30
44851;DHT22;30583;48.714;9.386;2024-02-23T14:48:07;10.00;53.20
44851;DHT22;30583;48.714;9.386;2024-02-23T14:50:32;10.40;51.20
44851;DHT22;30583;48.714;9.386;2024-02-23T14:52:58;10.60;52.10
44851;DHT22;30583;48.714;9.386;2024-02-23T14:55:24;10.10;52.90
44851;DHT22;30583;48.714;9.386;2024-02-23T14:57:49;10.20;54.10
44851;DHT22;30583;48.714;9.386;2024-02-23T15:00:15;10.10;54.30
44851;DHT22;30583;48.714;9.386;2024-02-23T15:02:41;10.20;53.80
44851;DHT22;30583;48.714;9.386;2024-02-23T15:05:07;10.30;54.70
44851;DHT22;30583;48.714;9.386;2024-02-23T15:07:33;10.00;55.60
44851;DHT22;30583;48.714;9.386;2024-02-23T15:10:01;10.00;55.80
44851;DHT22;30583;48.714;9.386;2024-02-23T15:12:31;10.40;54.70
44851;DHT22;30583;48.714;9.386;2024-02-23T15:14:57;10.10;53.70
44851;DHT22;30583;48.714;9.386;2024-02-23T15:17:22;10.10;52.20
44851;DHT22;30583;48.714;9.386;2024-02-23T15:19:48;10.00;52.40
44851;DHT22;30583;48.714;9.386;2024-02-23T15:22:13;10.10;53.10
44851;DHT22;30583;48.714;9.386;2024-02-23T15:24:41;10.10;54.20
44851;DHT22;30583;48.714;9.386;2024-02-23T15:27:08;10.10;53.90
44851;DHT22;30583;48.714;9.386;2024-02-23T15:29:34;10.30;53.50
44851;DHT22;30583;48.714;9.386;2024-02-23T15:32:00;10.20;53.60
44851;DHT22;30583;48.714;9.386;2024-02-23T15:34:26;10.00;53.60
44851;DHT22;30583;48.714;9.386;2024-02-23T15:36:52;10.30;52.40
44851;DHT22;30583;48.714;9.386;2024-02-23T15:39:17;10.40;52.70